sensor_id;sensor_type;location;lat;lon;timestamp;pressure;altitude;pressure_sealevel;temperature;humidity
49216;BME280;45943;53.148;8.204;2023-09-12T00:02:08;101238.53;;;26.07;100.00
49216;BME280;45943;53.148;8.204;2023-09-12T00:04:35;101247.19;;;26.10;100.00
49216;BME280;45943;53.148;8.204;2023-09-12T00:07:01;101250.34;;;26.20;100.00
49216;BME280;45943;53.148;8.204;2023-09-12T00:09:27;101265.72;;;26.35;100.00
49216;BME280;45943;53.148;8.204;2023-09-12T00:11:53;101270.41;;;26.41;100.00
49216;BME280;45943;53.148;8.204;2023-09-12T00:14:20;101269.13;;;26.37;100.00
49216;BME280;45943;53.148;8.204;2023-09-12T00:16:46;101270.19;;;26.29;100.00
49216;BME280;45943;53.148;8.204;2023-09-12T00:19:12;101278.22;;;26.30;100.00
49216;BME280;45943;53.148;8.204;2023-09-12T00:21:38;101277.81;;;26.40;100.00
49216;BME280;45943;53.148;8.204;2023-09-12T00:24:04;101273.53;;;26.44;100.00
49216;BME280;45943;53.148;8.204;2023-09-12T00:26:31;101280.34;;;26.42;100.00
49216;BME280;45943;53.148;8.204;2023-09-12T00:28:57;101273.41;;;26.26;100.00
49216;BME280;45943;53.148;8.204;2023-09-12T00:31:23;101276.56;;;26.23;100.00
49216;BME280;45943;53.148;8.204;2023-09-12T00:33:49;101277.84;;;26.20;100.00
49216;BME280;45943;53.148;8.204;2023-09-12T00:36:15;101303.44;;;26.27;100.00
49216;BME280;45943;53.148;8.204;2023-09-12T00:38:41;101310.00;;;26.26;100.00
49216;BME280;45943;53.148;8.204;2023-09-12T00:41:07;101317.19;;;26.21;100.00
49216;BME280;45943;53.148;8.204;2023-09-12T00:43:33;101322.28;;;26.17;100.00
49216;BME280;45943;53.148;8.204;2023-09-12T00:45:59;101322.50;;;26.09;100.00
49216;BME280;45943;53.148;8.204;2023-09-12T00:48:25;101318.06;;;26.01;100.00
49216;BME280;45943;53.148;8.204;2023-09-12T00:50:51;101311.31;;;25.97;100.00
49216;BME280;45943;53.148;8.204;2023-09-12T00:53:19;101305.38;;;26.00;100.00
49216;BME280;45943;53.148;8.204;2023-09-12T00:55:48;101291.63;;;26.00;100.00
49216;BME280;45943;53.148;8.204;2023-09-12T00:58:19;101294.81;;;25.97;100.00
49216;BME280;45943;53.148;8.204;2023-09-12T01:00:45;101296.91;;;25.95;100.00
49216;BME280;45943;53.148;8.204;2023-09-12T01:03:12;101290.56;;;25.95;100.00
49216;BME280;45943;53.148;8.204;2023-09-12T01:05:38;101294.81;;;25.91;100.00
49216;BME280;45943;53.148;8.204;2023-09-12T01:08:06;101294.19;;;25.89;100.00
49216;BME280;45943;53.148;8.204;2023-09-12T01:10:32;101308.34;;;25.92;100.00
49216;BME280;45943;53.148;8.204;2023-09-12T01:12:58;101315.31;;;25.95;100.00
49216;BME280;45943;53.148;8.204;2023-09-12T01:15:24;101318.06;;;25.95;100.00
49216;BME280;45943;53.148;8.204;2023-09-12T01:17:51;101307.94;;;25.89;100.00
49216;BME280;45943;53.148;8.204;2023-09-12T01:20:24;101307.09;;;25.82;100.00
49216;BME280;45943;53.148;8.204;2023-09-12T01:28:25;101309.84;;;25.82;100.00
49216;BME280;45943;53.148;8.204;2023-09-12T01:30:56;101325.91;;;25.78;100.00
49216;BME280;45943;53.148;8.204;2023-09-12T01:33:23;101330.75;;;25.69;100.00
49216;BME280;45943;53.148;8.204;2023-09-12T01:35:50;101310.03;;;25.60;100.00
49216;BME280;45943;53.148;8.204;2023-09-12T01:38:16;101292.28;;;25.50;100.00
49216;BME280;45943;53.148;8.204;2023-09-12T01:40:43;101284.66;;;25.45;100.00
49216;BME280;45943;53.148;8.204;2023-09-12T01:43:13;101272.84;;;25.58;100.00
49216;BME280;45943;53.148;8.204;2023-09-12T01:45:41;101280.03;;;25.72;100.00
49216;BME280;45943;53.148;8.204;2023-09-12T01:48:08;101277.69;;;25.76;100.00
49216;BME280;45943;53.148;8.204;2023-09-12T01:50:36;101278.75;;;25.74;100.00
49216;BME280;45943;53.148;8.204;2023-09-12T01:53:04;101270.72;;;25.66;100.00
49216;BME280;45943;53.148;8.204;2023-09-12T01:55:30;101285.28;;;25.54;100.00
49216;BME280;45943;53.148;8.204;2023-09-12T01:57:57;101298.81;;;25.55;100.00
49216;BME280;45943;53.148;8.204;2023-09-12T02:00:23;101301.78;;;25.54;100.00
49216;BME280;45943;53.148;8.204;2023-09-12T02:02:49;101292.06;;;25.51;100.00
49216;BME280;45943;53.148;8.204;2023-09-12T02:05:16;101245.78;;;25.35;100.00
49216;BME280;45943;53.148;8.204;2023-09-12T02:07:48;101221.50;;;25.19;100.00
49216;BME280;45943;53.148;8.204;2023-09-12T02:10:14;101224.44;;;25.24;100.00
49216;BME280;45943;53.148;8.204;2023-09-12T02:12:41;101217.69;;;25.39;100.00
49216;BME280;45943;53.148;8.204;2023-09-12T02:15:07;101206.50;;;25.41;100.00
49216;BME280;45943;53.148;8.204;2023-09-12T02:17:33;101207.13;;;25.30;100.00
49216;BME280;45943;53.148;8.204;2023-09-12T02:19:59;101216.00;;;25.19;100.00
49216;BME280;45943;53.148;8.204;2023-09-12T02:22:25;101220.84;;;25.10;100.00
49216;BME280;45943;53.148;8.204;2023-09-12T02:24:51;101223.94;;;24.94;100.00
49216;BME280;45943;53.148;8.204;2023-09-12T02:27:17;101222.88;;;24.81;100.00
49216;BME280;45943;53.148;8.204;2023-09-12T02:29:43;101227.06;;;24.71;100.00
49216;BME280;45943;53.148;8.204;2023-09-12T02:32:10;101245.25;;;24.78;100.00
49216;BME280;45943;53.148;8.204;2023-09-12T02:34:35;101252.88;;;24.89;100.00
49216;BME280;45943;53.148;8.204;2023-09-12T02:37:02;101300.53;;;24.75;100.00
49216;BME280;45943;53.148;8.204;2023-09-12T02:39:28;101311.84;;;24.52;100.00
49216;BME280;45943;53.148;8.204;2023-09-12T02:41:54;101316.31;;;24.60;100.00
49216;BME280;45943;53.148;8.204;2023-09-12T02:44:20;101327.75;;;24.77;100.00
49216;BME280;45943;53.148;8.204;2023-09-12T02:46:46;101325.03;;;24.83;100.00
49216;BME280;45943;53.148;8.204;2023-09-12T02:49:12;101330.34;;;24.92;100.00
49216;BME280;45943;53.148;8.204;2023-09-12T02:51:38;101338.81;;;24.97;100.00
49216;BME280;45943;53.148;8.204;2023-09-12T02:54:05;101326.34;;;24.94;100.00
49216;BME280;45943;53.148;8.204;2023-09-12T02:56:31;101325.28;;;24.95;100.00
49216;BME280;45943;53.148;8.204;2023-09-12T02:58:58;101310.50;;;24.89;100.00
49216;BME280;45943;53.148;8.204;2023-09-12T03:01:23;101306.28;;;24.94;100.00
49216;BME280;45943;53.148;8.204;2023-09-12T03:03:53;101290.91;;;24.99;100.00
49216;BME280;45943;53.148;8.204;2023-09-12T03:06:19;101282.44;;;24.94;100.00
49216;BME280;45943;53.148;8.204;2023-09-12T03:08:47;101288.75;;;24.88;100.00
49216;BME280;45943;53.148;8.204;2023-09-12T03:11:13;101282.19;;;24.82;100.00
49216;BME280;45943;53.148;8.204;2023-09-12T03:13:40;101269.53;;;24.81;100.00
49216;BME280;45943;53.148;8.204;2023-09-12T03:16:10;101269.13;;;24.91;100.00
49216;BME280;45943;53.148;8.204;2023-09-12T03:18:40;101268.91;;;24.93;100.00
49216;BME280;45943;53.148;8.204;2023-09-12T03:21:06;101272.94;;;24.90;100.00
49216;BME280;45943;53.148;8.204;2023-09-12T03:23:32;101262.59;;;24.92;100.00
49216;BME280;45943;53.148;8.204;2023-09-12T03:26:02;101262.81;;;24.91;100.00
49216;BME280;45943;53.148;8.204;2023-09-12T03:28:29;101261.91;;;24.77;100.00
49216;BME280;45943;53.148;8.204;2023-09-12T03:31:08;101268.44;;;24.69;100.00
49216;BME280;45943;53.148;8.204;2023-09-12T03:33:37;101254.44;;;24.57;100.00
49216;BME280;45943;53.148;8.204;2023-09-12T03:36:04;101243.22;;;24.46;100.00
49216;BME280;45943;53.148;8.204;2023-09-12T03:38:31;101233.28;;;24.38;100.00
49216;BME280;45943;53.148;8.204;2023-09-12T03:40:57;101229.69;;;24.38;100.00
49216;BME280;45943;53.148;8.204;2023-09-12T03:43:23;101220.22;;;24.40;100.00
49216;BME280;45943;53.148;8.204;2023-09-12T03:45:49;101221.09;;;24.54;100.00
49216;BME280;45943;53.148;8.204;2023-09-12T03:48:15;101219.06;;;24.76;100.00
49216;BME280;45943;53.148;8.204;2023-09-12T03:50:41;101218.47;;;24.94;100.00
49216;BME280;45943;53.148;8.204;2023-09-12T03:53:07;101221.88;;;25.02;100.00
49216;BME280;45943;53.148;8.204;2023-09-12T03:55:33;101222.06;;;25.01;100.00
49216;BME280;45943;53.148;8.204;2023-09-12T03:57:59;101224.22;;;25.05;100.00
49216;BME280;45943;53.148;8.204;2023-09-12T04:00:25;101213.44;;;25.17;100.00
49216;BME280;45943;53.148;8.204;2023-09-12T04:02:51;101213.88;;;25.21;100.00
49216;BME280;45943;53.148;8.204;2023-09-12T04:05:17;101214.31;;;25.17;100.00
49216;BME280;45943;53.148;8.204;2023-09-12T04:07:43;101220.19;;;25.14;100.00
49216;BME280;45943;53.148;8.204;2023-09-12T04:10:09;101224.22;;;25.12;100.00
49216;BME280;45943;53.148;8.204;2023-09-12T04:12:35;101226.56;;;25.08;100.00
49216;BME280;45943;53.148;8.204;2023-09-12T04:15:01;101223.34;;;24.98;100.00
49216;BME280;45943;53.148;8.204;2023-09-12T04:17:27;101220.38;;;24.93;100.00
49216;BME280;45943;53.148;8.204;2023-09-12T04:19:53;101223.53;;;24.90;100.00
49216;BME280;45943;53.148;8.204;2023-09-12T04:22:19;101241.88;;;24.83;100.00
49216;BME280;45943;53.148;8.204;2023-09-12T04:24:45;101257.03;;;24.72;100.00
49216;BME280;45943;53.148;8.204;2023-09-12T04:27:11;101255.75;;;24.62;100.00
49216;BME280;45943;53.148;8.204;2023-09-12T04:29:37;101250.69;;;24.58;100.00
49216;BME280;45943;53.148;8.204;2023-09-12T04:32:03;101256.78;;;24.54;100.00
49216;BME280;45943;53.148;8.204;2023-09-12T04:34:29;101259.50;;;24.54;100.00
49216;BME280;45943;53.148;8.204;2023-09-12T04:36:56;101258.66;;;24.53;100.00
49216;BME280;45943;53.148;8.204;2023-09-12T04:39:22;101261.19;;;24.55;100.00
49216;BME280;45943;53.148;8.204;2023-09-12T04:41:48;101263.97;;;24.62;100.00
49216;BME280;45943;53.148;8.204;2023-09-12T04:44:14;101273.72;;;24.71;100.00
49216;BME280;45943;53.148;8.204;2023-09-12T04:46:40;101275.22;;;24.80;100.00
49216;BME280;45943;53.148;8.204;2023-09-12T04:49:06;101278.41;;;24.83;100.00
49216;BME280;45943;53.148;8.204;2023-09-12T04:51:32;101275.44;;;24.85;100.00
49216;BME280;45943;53.148;8.204;2023-09-12T04:53:58;101265.94;;;24.87;100.00
49216;BME280;45943;53.148;8.204;2023-09-12T04:56:24;101273.78;;;24.91;100.00
49216;BME280;45943;53.148;8.204;2023-09-12T04:59:01;101271.66;;;24.93;100.00
49216;BME280;45943;53.148;8.204;2023-09-12T05:01:27;101278.00;;;24.93;100.00
49216;BME280;45943;53.148;8.204;2023-09-12T05:03:53;101277.56;;;24.96;100.00
49216;BME280;45943;53.148;8.204;2023-09-12T05:06:19;101286.03;;;24.95;100.00
49216;BME280;45943;53.148;8.204;2023-09-12T05:08:45;101288.31;;;24.84;100.00
49216;BME280;45943;53.148;8.204;2023-09-12T05:11:11;101295.50;;;24.79;100.00
49216;BME280;45943;53.148;8.204;2023-09-12T05:13:37;101290.38;;;24.69;100.00
49216;BME280;45943;53.148;8.204;2023-09-12T05:16:03;101289.94;;;24.66;100.00
49216;BME280;45943;53.148;8.204;2023-09-12T05:18:29;101291.38;;;24.55;100.00
49216;BME280;45943;53.148;8.204;2023-09-12T05:20:55;101284.16;;;24.47;100.00
49216;BME280;45943;53.148;8.204;2023-09-12T05:23:21;101285.41;;;24.45;100.00
49216;BME280;45943;53.148;8.204;2023-09-12T05:25:47;101292.59;;;24.46;100.00
49216;BME280;45943;53.148;8.204;2023-09-12T05:28:13;101287.16;;;24.52;100.00
49216;BME280;45943;53.148;8.204;2023-09-12T05:30:42;101294.38;;;24.60;100.00
49216;BME280;45943;53.148;8.204;2023-09-12T05:33:08;101296.91;;;24.62;100.00
49216;BME280;45943;53.148;8.204;2023-09-12T05:35:34;101289.50;;;24.62;100.00
49216;BME280;45943;53.148;8.204;2023-09-12T05:38:02;101278.53;;;24.62;100.00
49216;BME280;45943;53.148;8.204;2023-09-12T05:40:28;101282.28;;;24.54;100.00
49216;BME280;45943;53.148;8.204;2023-09-12T05:42:54;101287.56;;;24.56;100.00
49216;BME280;45943;53.148;8.204;2023-09-12T05:45:20;101279.59;;;24.61;100.00
49216;BME280;45943;53.148;8.204;2023-09-12T05:47:46;101282.94;;;24.56;100.00
49216;BME280;45943;53.148;8.204;2023-09-12T05:50:13;101294.31;;;24.53;100.00
49216;BME280;45943;53.148;8.204;2023-09-12T05:52:39;101285.88;;;24.55;100.00
49216;BME280;45943;53.148;8.204;2023-09-12T05:55:07;101285.28;;;24.59;100.00
49216;BME280;45943;53.148;8.204;2023-09-12T05:57:33;101286.34;;;24.65;100.00
49216;BME280;45943;53.148;8.204;2023-09-12T05:59:59;101291.22;;;24.70;100.00
49216;BME280;45943;53.148;8.204;2023-09-12T06:02:27;101291.03;;;24.71;100.00
49216;BME280;45943;53.148;8.204;2023-09-12T06:04:53;101294.41;;;24.73;100.00
49216;BME280;45943;53.148;8.204;2023-09-12T06:07:19;101290.59;;;24.74;100.00
49216;BME280;45943;53.148;8.204;2023-09-12T06:09:45;101288.28;;;24.71;100.00
49216;BME280;45943;53.148;8.204;2023-09-12T06:12:11;101295.22;;;24.67;100.00
49216;BME280;45943;53.148;8.204;2023-09-12T06:14:37;101302.38;;;24.62;100.00
49216;BME280;45943;53.148;8.204;2023-09-12T06:17:03;101292.63;;;24.52;100.00
49216;BME280;45943;53.148;8.204;2023-09-12T06:19:29;101302.97;;;24.50;100.00
49216;BME280;45943;53.148;8.204;2023-09-12T06:21:56;101293.91;;;24.50;100.00
49216;BME280;45943;53.148;8.204;2023-09-12T06:24:22;101283.97;;;24.55;100.00
49216;BME280;45943;53.148;8.204;2023-09-12T06:26:49;101274.06;;;24.54;100.00
49216;BME280;45943;53.148;8.204;2023-09-12T06:29:15;101267.31;;;24.57;100.00
49216;BME280;45943;53.148;8.204;2023-09-12T06:31:41;101270.31;;;24.62;100.00
49216;BME280;45943;53.148;8.204;2023-09-12T06:34:08;101273.69;;;24.64;100.00
49216;BME280;45943;53.148;8.204;2023-09-12T06:36:34;101274.53;;;24.65;100.00
49216;BME280;45943;53.148;8.204;2023-09-12T06:39:00;101260.38;;;24.61;100.00
49216;BME280;45943;53.148;8.204;2023-09-12T06:41:26;101260.16;;;24.56;100.00
49216;BME280;45943;53.148;8.204;2023-09-12T06:43:53;101256.38;;;24.64;100.00
49216;BME280;45943;53.148;8.204;2023-09-12T06:46:19;101256.84;;;24.74;100.00
49216;BME280;45943;53.148;8.204;2023-09-12T06:48:45;101251.38;;;24.80;100.00
49216;BME280;45943;53.148;8.204;2023-09-12T06:51:11;101252.84;;;24.83;100.00
49216;BME280;45943;53.148;8.204;2023-09-12T06:53:38;101249.25;;;24.82;100.00
49216;BME280;45943;53.148;8.204;2023-09-12T06:56:04;101257.91;;;24.86;100.00
49216;BME280;45943;53.148;8.204;2023-09-12T06:58:31;101268.22;;;24.77;100.00
49216;BME280;45943;53.148;8.204;2023-09-12T07:01:04;101274.13;;;24.74;100.00
49216;BME280;45943;53.148;8.204;2023-09-12T07:03:35;101274.59;;;24.78;100.00
49216;BME280;45943;53.148;8.204;2023-09-12T07:06:01;101269.09;;;24.78;100.00
49216;BME280;45943;53.148;8.204;2023-09-12T07:08:31;101276.66;;;24.69;100.00
49216;BME280;45943;53.148;8.204;2023-09-12T07:10:58;101280.22;;;24.63;100.00
49216;BME280;45943;53.148;8.204;2023-09-12T07:13:31;101281.88;;;24.57;100.00
49216;BME280;45943;53.148;8.204;2023-09-12T07:15:58;101287.56;;;24.56;100.00
49216;BME280;45943;53.148;8.204;2023-09-12T07:18:24;101290.09;;;24.51;100.00
49216;BME280;45943;53.148;8.204;2023-09-12T07:20:57;101293.06;;;24.56;100.00
49216;BME280;45943;53.148;8.204;2023-09-12T07:23:26;101300.28;;;24.64;100.00
49216;BME280;45943;53.148;8.204;2023-09-12T07:25:53;101298.41;;;24.71;100.00
49216;BME280;45943;53.148;8.204;2023-09-12T07:28:24;101298.84;;;24.74;100.00
49216;BME280;45943;53.148;8.204;2023-09-12T07:30:51;101293.97;;;24.76;100.00
49216;BME280;45943;53.148;8.204;2023-09-12T07:33:17;101298.81;;;24.68;100.00
49216;BME280;45943;53.148;8.204;2023-09-12T07:35:43;101301.06;;;24.51;100.00
49216;BME280;45943;53.148;8.204;2023-09-12T07:38:09;101300.63;;;24.47;100.00
49216;BME280;45943;53.148;8.204;2023-09-12T07:40:35;101304.03;;;24.49;100.00
49216;BME280;45943;53.148;8.204;2023-09-12T07:43:01;101312.03;;;24.51;100.00
49216;BME280;45943;53.148;8.204;2023-09-12T07:45:28;101327.50;;;24.58;100.00
49216;BME280;45943;53.148;8.204;2023-09-12T07:47:55;101331.88;;;24.53;100.00
49216;BME280;45943;53.148;8.204;2023-09-12T07:50:21;101333.78;;;24.52;100.00
49216;BME280;45943;53.148;8.204;2023-09-12T07:52:47;101337.56;;;24.51;100.00
49216;BME280;45943;53.148;8.204;2023-09-12T07:55:13;101339.91;;;24.54;100.00
49216;BME280;45943;53.148;8.204;2023-09-12T07:57:39;101344.34;;;24.55;100.00
49216;BME280;45943;53.148;8.204;2023-09-12T08:00:05;101355.72;;;24.52;100.00
49216;BME280;45943;53.148;8.204;2023-09-12T08:02:35;101357.41;;;24.53;100.00
49216;BME280;45943;53.148;8.204;2023-09-12T08:05:01;101357.19;;;24.55;100.00
49216;BME280;45943;53.148;8.204;2023-09-12T08:07:27;101354.72;;;24.60;100.00
49216;BME280;45943;53.148;8.204;2023-09-12T08:09:54;101355.13;;;24.64;100.00
49216;BME280;45943;53.148;8.204;2023-09-12T08:12:23;101355.97;;;24.64;100.00
49216;BME280;45943;53.148;8.204;2023-09-12T08:14:50;101355.97;;;24.64;100.00
49216;BME280;45943;53.148;8.204;2023-09-12T08:17:16;101362.78;;;24.68;100.00
49216;BME280;45943;53.148;8.204;2023-09-12T08:19:42;101365.75;;;24.73;100.00
49216;BME280;45943;53.148;8.204;2023-09-12T08:22:09;101368.91;;;24.77;100.00
49216;BME280;45943;53.148;8.204;2023-09-12T08:24:36;101377.34;;;24.75;100.00
49216;BME280;45943;53.148;8.204;2023-09-12T08:27:02;101370.44;;;24.86;100.00
49216;BME280;45943;53.148;8.204;2023-09-12T08:29:29;101362.72;;;25.03;100.00
49216;BME280;45943;53.148;8.204;2023-09-12T08:31:57;101357.69;;;25.13;100.00
49216;BME280;45943;53.148;8.204;2023-09-12T08:34:24;101355.59;;;25.22;100.00
49216;BME280;45943;53.148;8.204;2023-09-12T08:36:51;101360.28;;;25.28;100.00
49216;BME280;45943;53.148;8.204;2023-09-12T08:39:18;101365.78;;;25.28;100.00
49216;BME280;45943;53.148;8.204;2023-09-12T08:41:49;101370.59;;;25.26;100.00
49216;BME280;45943;53.148;8.204;2023-09-12T08:44:16;101358.16;;;25.30;100.00
49216;BME280;45943;53.148;8.204;2023-09-12T08:46:44;101361.78;;;25.37;100.00
49216;BME280;45943;53.148;8.204;2023-09-12T08:49:10;101363.44;;;25.31;100.00
49216;BME280;45943;53.148;8.204;2023-09-12T08:51:37;101358.56;;;25.27;100.00
49216;BME280;45943;53.148;8.204;2023-09-12T08:54:05;101359.22;;;25.35;100.00
49216;BME280;45943;53.148;8.204;2023-09-12T08:56:32;101367.69;;;25.40;100.00
49216;BME280;45943;53.148;8.204;2023-09-12T08:59:00;101371.28;;;25.41;100.00
49216;BME280;45943;53.148;8.204;2023-09-12T09:01:28;101378.69;;;25.40;100.00
49216;BME280;45943;53.148;8.204;2023-09-12T09:03:56;101378.06;;;25.38;100.00
49216;BME280;45943;53.148;8.204;2023-09-12T09:06:22;101385.00;;;25.34;100.00
49216;BME280;45943;53.148;8.204;2023-09-12T09:08:51;101380.34;;;25.35;100.00
49216;BME280;45943;53.148;8.204;2023-09-12T09:11:17;101386.91;;;25.34;100.00
49216;BME280;45943;53.148;8.204;2023-09-12T09:13:43;101382.03;;;25.36;100.00
49216;BME280;45943;53.148;8.204;2023-09-12T09:16:16;101385.44;;;25.38;100.00
49216;BME280;45943;53.148;8.204;2023-09-12T09:18:52;101380.59;;;25.40;100.00
49216;BME280;45943;53.148;8.204;2023-09-12T09:21:26;101376.97;;;25.46;100.00
49216;BME280;45943;53.148;8.204;2023-09-12T09:24:00;101379.09;;;25.44;100.00
49216;BME280;45943;53.148;8.204;2023-09-12T09:29:10;101383.09;;;25.35;100.00
49216;BME280;45943;53.148;8.204;2023-09-12T09:31:42;101383.75;;;25.37;100.00
49216;BME280;45943;53.148;8.204;2023-09-12T09:34:10;101399.81;;;25.40;100.00
49216;BME280;45943;53.148;8.204;2023-09-12T09:36:40;101402.75;;;25.45;100.00
49216;BME280;45943;53.148;8.204;2023-09-12T09:39:08;101409.75;;;25.48;100.00
49216;BME280;45943;53.148;8.204;2023-09-12T09:41:34;101396.44;;;25.51;100.00
49216;BME280;45943;53.148;8.204;2023-09-12T09:44:02;101402.16;;;25.56;100.00
49216;BME280;45943;53.148;8.204;2023-09-12T09:46:30;101398.16;;;25.59;100.00
49216;BME280;45943;53.148;8.204;2023-09-12T09:48:56;101398.97;;;25.46;100.00
49216;BME280;45943;53.148;8.204;2023-09-12T09:51:22;101405.31;;;25.40;100.00
49216;BME280;45943;53.148;8.204;2023-09-12T09:53:51;101403.63;;;25.39;100.00
49216;BME280;45943;53.148;8.204;2023-09-12T09:56:18;101408.25;;;25.45;100.00
49216;BME280;45943;53.148;8.204;2023-09-12T10:01:20;101404.66;;;25.44;100.00
49216;BME280;45943;53.148;8.204;2023-09-12T10:03:47;101418.78;;;25.35;100.00
49216;BME280;45943;53.148;8.204;2023-09-12T10:06:17;101413.69;;;25.19;100.00
49216;BME280;45943;53.148;8.204;2023-09-12T10:08:45;101408.34;;;25.04;100.00
49216;BME280;45943;53.148;8.204;2023-09-12T10:11:15;101412.78;;;25.05;100.00
49216;BME280;45943;53.148;8.204;2023-09-12T10:13:49;101412.97;;;25.03;100.00
49216;BME280;45943;53.148;8.204;2023-09-12T10:16:18;101409.16;;;24.98;100.00
49216;BME280;45943;53.148;8.204;2023-09-12T10:22:31;101403.84;;;24.96;100.00
49216;BME280;45943;53.148;8.204;2023-09-12T10:24:49;101388.94;;;25.12;100.00
49216;BME280;45943;53.148;8.204;2023-09-12T10:27:15;101391.06;;;25.10;100.00
49216;BME280;45943;53.148;8.204;2023-09-12T10:29:46;101385.66;;;24.88;100.00
49216;BME280;45943;53.148;8.204;2023-09-12T10:32:15;101381.19;;;24.81;100.00
49216;BME280;45943;53.148;8.204;2023-09-12T10:34:43;101376.81;;;24.93;100.00
49216;BME280;45943;53.148;8.204;2023-09-12T10:37:15;101370.53;;;25.06;100.00
49216;BME280;45943;53.148;8.204;2023-09-12T10:39:45;101369.94;;;25.10;100.00
49216;BME280;45943;53.148;8.204;2023-09-12T10:42:12;101366.16;;;25.25;100.00
49216;BME280;45943;53.148;8.204;2023-09-12T10:44:39;101365.38;;;25.44;100.00
49216;BME280;45943;53.148;8.204;2023-09-12T10:47:05;101359.47;;;25.54;100.00
49216;BME280;45943;53.148;8.204;2023-09-12T10:49:33;101355.91;;;25.66;100.00
49216;BME280;45943;53.148;8.204;2023-09-12T10:51:59;101351.91;;;25.89;100.00
49216;BME280;45943;53.148;8.204;2023-09-12T10:54:26;101350.00;;;26.09;100.00
49216;BME280;45943;53.148;8.204;2023-09-12T10:57:11;101356.56;;;26.01;100.00
49216;BME280;45943;53.148;8.204;2023-09-12T11:02:31;101356.34;;;25.96;100.00
49216;BME280;45943;53.148;8.204;2023-09-12T11:04:59;101357.19;;;26.03;100.00
49216;BME280;45943;53.148;8.204;2023-09-12T11:07:33;101344.28;;;26.17;100.00
49216;BME280;45943;53.148;8.204;2023-09-12T11:12:45;101359.03;;;26.56;100.00
49216;BME280;45943;53.148;8.204;2023-09-12T11:15:14;101359.19;;;26.68;100.00
49216;BME280;45943;53.148;8.204;2023-09-12T11:17:43;101358.75;;;26.77;100.00
49216;BME280;45943;53.148;8.204;2023-09-12T11:20:11;101358.91;;;26.89;100.00
49216;BME280;45943;53.148;8.204;2023-09-12T11:22:39;101356.75;;;26.98;100.00
49216;BME280;45943;53.148;8.204;2023-09-12T11:25:16;101364.91;;;27.24;100.00
49216;BME280;45943;53.148;8.204;2023-09-12T11:27:46;101350.56;;;27.79;100.00
49216;BME280;45943;53.148;8.204;2023-09-12T11:30:31;101354.88;;;28.18;100.00
49216;BME280;45943;53.148;8.204;2023-09-12T11:32:58;101356.38;;;28.39;100.00
49216;BME280;45943;53.148;8.204;2023-09-12T11:35:26;101365.44;;;28.46;100.00
49216;BME280;45943;53.148;8.204;2023-09-12T11:37:54;101365.81;;;28.49;100.00
49216;BME280;45943;53.148;8.204;2023-09-12T11:40:41;101372.69;;;28.40;100.00
49216;BME280;45943;53.148;8.204;2023-09-12T11:43:08;101368.97;;;28.71;100.00
49216;BME280;45943;53.148;8.204;2023-09-12T11:45:45;101369.97;;;28.95;100.00
49216;BME280;45943;53.148;8.204;2023-09-12T11:48:12;101368.06;;;29.26;100.00
49216;BME280;45943;53.148;8.204;2023-09-12T11:50:38;101376.91;;;29.46;100.00
49216;BME280;45943;53.148;8.204;2023-09-12T11:53:07;101371.06;;;29.24;100.00
49216;BME280;45943;53.148;8.204;2023-09-12T11:55:37;101363.97;;;29.28;100.00
49216;BME280;45943;53.148;8.204;2023-09-12T11:58:10;101377.44;;;29.55;96.89
49216;BME280;45943;53.148;8.204;2023-09-12T12:00:37;101363.72;;;29.48;99.10
49216;BME280;45943;53.148;8.204;2023-09-12T12:03:03;101368.34;;;29.36;97.89
49216;BME280;45943;53.148;8.204;2023-09-12T12:05:30;101360.56;;;29.45;97.61
49216;BME280;45943;53.148;8.204;2023-09-12T12:07:57;101359.44;;;29.34;94.85
49216;BME280;45943;53.148;8.204;2023-09-12T12:10:24;101351.44;;;29.44;97.06
49216;BME280;45943;53.148;8.204;2023-09-12T12:12:52;101345.47;;;29.59;93.74
49216;BME280;45943;53.148;8.204;2023-09-12T12:15:19;101344.78;;;29.63;91.63
49216;BME280;45943;53.148;8.204;2023-09-12T12:17:46;101339.50;;;29.62;91.90
49216;BME280;45943;53.148;8.204;2023-09-12T12:20:12;101336.97;;;29.72;90.59
49216;BME280;45943;53.148;8.204;2023-09-12T12:22:38;101340.25;;;29.81;88.33
49216;BME280;45943;53.148;8.204;2023-09-12T12:25:05;101327.94;;;29.65;81.71
49216;BME280;45943;53.148;8.204;2023-09-12T12:27:35;101330.47;;;29.78;82.35
49216;BME280;45943;53.148;8.204;2023-09-12T12:30:01;101325.00;;;30.13;81.21
49216;BME280;45943;53.148;8.204;2023-09-12T12:32:28;101330.66;;;30.07;78.40
49216;BME280;45943;53.148;8.204;2023-09-12T12:34:54;101328.19;;;29.98;78.50
49216;BME280;45943;53.148;8.204;2023-09-12T12:37:20;101327.50;;;30.03;78.61
49216;BME280;45943;53.148;8.204;2023-09-12T12:39:45;101336.06;;;30.13;83.16
49216;BME280;45943;53.148;8.204;2023-09-12T12:42:11;101334.59;;;30.34;79.28
49216;BME280;45943;53.148;8.204;2023-09-12T12:44:37;101335.31;;;30.65;75.25
49216;BME280;45943;53.148;8.204;2023-09-12T12:47:06;101323.47;;;30.58;75.57
49216;BME280;45943;53.148;8.204;2023-09-12T12:49:37;101327.97;;;30.35;74.38
49216;BME280;45943;53.148;8.204;2023-09-12T12:52:05;101332.69;;;29.99;76.01
49216;BME280;45943;53.148;8.204;2023-09-12T12:54:31;101337.34;;;29.87;86.81
49216;BME280;45943;53.148;8.204;2023-09-12T12:56:59;101317.66;;;30.19;77.75
49216;BME280;45943;53.148;8.204;2023-09-12T12:59:25;101330.03;;;29.93;79.12
49216;BME280;45943;53.148;8.204;2023-09-12T13:01:51;101323.41;;;29.82;80.91